Tyler, Washington
Current Conditions -  °F | °C
As of 10:58 AM on Monday 20 Oct 2014 (Local Time) from KSKA Reporting Station
Broken Clouds Broken Clouds  
Wind Chill: 64°   Ceiling: 19000
Heat Index: 64°   Visibility: 10mi
Dew Point: 44°   Wind: 9mph
Humidity: 48%   Direction: 180°S
Pressure: 29.77"   Gusts: NA
Location:  47.411°N, 117.628°W
Report Text: KSKA 201758Z AUTO 18008KT 10SM SCT170 BKN190 18/07 A2977 RMK AO2 SLP079 T01760065 10176 20058 50006
Loading
Personal Weather Stations






























Interactive Weather Map
Tropical Storm Tracking
New forecast layout! Learn more

10-Day Weather Forecast

Advertisements
Track Severe Weather on mobile